Terminal Aerodrome Forecast
Issued by NWS Pueblo, CO

Home | Current Version | Previous Version | Text Only | Print | Product List | Glossary On
Versions: 1 2 3 4 5 6 7 8 9 10 11 12 13 14 15 16 17 18 19 20 21 22 23 24 25 26 27 28 29
000
FTUS45 KPUB 202327
TAFCOS
TAF
KCOS 202327Z 2100/2124 10011KT P6SM BKN090 BKN200
     FM210300 06008KT P6SM VCTS SCT030CB BKN050
     FM210800 16006KT 5SM -SHRA BKN020 OVC050
     FM211400 15009KT 4SM -SHRA BR BKN012 OVC040
     FM212000 17012KT P6SM VCSH SCT020 BKN050=

USA.gov is the U.S. government's official web portal to all federal, state and local government web resources and services.